createdAt,value
2023-03-08T00:01:50.080Z,98746.44
2023-03-08T00:04:59.180Z,98744.69
2023-03-08T00:08:01.838Z,98750.06
2023-03-08T00:11:07.836Z,98748.25
2023-03-08T00:14:11.056Z,98755.47
2023-03-08T00:17:13.848Z,98748.19
2023-03-08T00:20:16.751Z,98756.25
2023-03-08T00:23:22.541Z,98759.88
2023-03-08T00:26:26.576Z,98746.44
2023-03-08T00:29:29.275Z,98754.59
2023-03-08T00:32:32.029Z,98746.25
2023-03-08T00:35:36.946Z,98753.72
2023-03-08T00:38:39.653Z,98750.06
2023-03-08T00:42:03.326Z,98753.72
2023-03-08T00:45:07.052Z,98751.09
2023-03-08T00:48:09.816Z,98740.25
2023-03-08T00:51:14.685Z,98753.72
2023-03-08T00:54:17.441Z,98748.34
2023-03-08T00:57:21.481Z,98751.97
2023-03-08T01:00:25.145Z,98742.16
2023-03-08T01:03:27.860Z,98746.59
2023-03-08T01:06:30.846Z,98745.78
2023-03-08T01:09:33.511Z,98740.59
2023-03-08T01:12:37.660Z,98737.03
2023-03-08T01:15:40.319Z,98742.50
2023-03-08T01:18:42.952Z,98741.56
2023-03-08T01:21:45.652Z,98727.03
2023-03-08T01:24:53.596Z,98725.34
2023-03-08T01:27:57.599Z,98712.97
2023-03-08T01:31:08.820Z,98727.66
2023-03-08T01:34:11.503Z,98714.28
2023-03-08T01:37:14.152Z,98727.72
2023-03-08T01:40:17.382Z,98722.25
2023-03-08T01:43:27.180Z,98718.78
2023-03-08T01:46:34.174Z,98715.16
2023-03-08T01:49:37.553Z,98700.75
2023-03-08T01:52:46.750Z,98704.53
2023-03-08T01:55:49.630Z,98705.41
2023-03-08T01:58:56.586Z,98697.59
2023-03-08T02:02:01.534Z,98692.22
2023-03-08T02:05:04.746Z,98700.28
2023-03-08T02:08:11.933Z,98701.25
2023-03-08T02:11:17.874Z,98687.72
2023-03-08T02:14:21.989Z,98692.38
2023-03-08T02:17:25.588Z,98693.25
2023-03-08T02:20:32.527Z,98695.06
2023-03-08T02:23:42.650Z,98683.50
2023-03-08T02:26:50.687Z,98690.63
2023-03-08T02:29:53.671Z,98698.78
2023-03-08T02:32:56.644Z,98680.47
2023-03-08T02:35:59.489Z,98687.00
2023-03-08T02:39:03.556Z,98675.56
2023-03-08T02:42:07.497Z,98684.56
2023-03-08T02:45:11.350Z,98667.72
2023-03-08T02:48:15.296Z,98638.03
2023-03-08T02:51:17.961Z,98659.50
2023-03-08T02:54:24.500Z,98658.00
2023-03-08T02:57:27.194Z,98653.66
2023-03-08T03:00:32.005Z,98648.97
2023-03-08T03:03:34.611Z,98653.47
2023-03-08T03:06:39.798Z,98655.22
2023-03-08T03:09:46.919Z,98642.91
2023-03-08T03:12:49.584Z,98640.81
2023-03-08T03:15:55.419Z,98640.22
2023-03-08T03:18:58.221Z,98642.13
2023-03-08T03:22:00.898Z,98634.84
2023-03-08T03:25:06.409Z,98639.44
2023-03-08T03:28:09.017Z,98635.19
2023-03-08T03:31:15.394Z,98639.59
2023-03-08T03:34:18.178Z,98627.13
2023-03-08T03:37:20.836Z,98633.34
2023-03-08T03:40:24.844Z,98625.19
2023-03-08T03:43:30.333Z,98633.44
2023-03-08T03:46:36.094Z,98629.88
2023-03-08T03:49:38.713Z,98627.00
2023-03-08T03:52:41.777Z,98622.78
2023-03-08T03:55:45.878Z,98621.03
2023-03-08T03:58:48.745Z,98625.88
2023-03-08T04:01:53.226Z,98627.91
2023-03-08T04:04:59.190Z,98621.06
2023-03-08T04:08:01.861Z,98615.56
2023-03-08T04:11:09.630Z,98622.13
2023-03-08T04:14:12.429Z,98633.19
2023-03-08T04:17:17.502Z,98632.78
2023-03-08T04:20:20.715Z,98628.00
2023-03-08T04:23:23.456Z,98636.38
2023-03-08T04:26:27.835Z,98638.25
2023-03-08T04:29:30.641Z,98628.59
2023-03-08T04:32:33.641Z,98606.72
2023-03-08T04:35:38.674Z,98608.38
2023-03-08T04:38:45.563Z,98594.00
2023-03-08T04:41:49.571Z,98596.84
2023-03-08T04:44:52.238Z,98605.69
2023-03-08T04:47:55.051Z,98611.00
2023-03-08T04:50:59.210Z,98601.94
2023-03-08T04:54:01.884Z,98610.66
2023-03-08T04:57:06.085Z,98603.41
2023-03-08T05:00:10.165Z,98611.47
2023-03-08T05:03:13.824Z,98604.16
2023-03-08T05:06:17.848Z,98595.97
2023-03-08T05:09:20.834Z,98611.94
2023-03-08T05:12:24.863Z,98603.03
2023-03-08T05:15:27.676Z,98599.13
2023-03-08T05:18:30.293Z,98588.50
2023-03-08T05:21:35.137Z,98598.25
2023-03-08T05:24:41.011Z,98594.81
2023-03-08T05:27:44.939Z,98583.28
2023-03-08T05:30:47.773Z,98593.22
2023-03-08T05:33:52.435Z,98595.84
2023-03-08T05:37:01.661Z,98576.09
2023-03-08T05:40:06.720Z,98575.44
2023-03-08T05:43:10.715Z,98582.47
2023-03-08T05:46:15.890Z,98595.84
2023-03-08T05:49:18.639Z,98580.59
2023-03-08T05:52:21.255Z,98598.44
2023-03-08T05:55:30.849Z,98597.31
2023-03-08T05:58:34.878Z,98544.88
2023-03-08T06:01:37.557Z,98582.16
2023-03-08T06:04:40.799Z,98585.81
2023-03-08T06:07:43.783Z,98593.75
2023-03-08T06:10:46.446Z,98590.78
2023-03-08T06:13:50.465Z,98584.69
2023-03-08T06:16:53.128Z,98587.63
2023-03-08T06:19:55.793Z,98589.44
2023-03-08T06:22:58.648Z,98612.88
2023-03-08T06:26:01.951Z,98602.22
2023-03-08T06:29:05.988Z,98597.09
2023-03-08T06:32:09.009Z,98601.69
2023-03-08T06:35:11.751Z,98605.38
2023-03-08T06:38:14.615Z,98584.91
2023-03-08T06:41:19.875Z,98584.97
2023-03-08T06:44:23.867Z,98583.09
2023-03-08T06:47:28.524Z,98564.75
2023-03-08T06:50:31.471Z,98574.09
2023-03-08T06:53:36.072Z,98571.41
2023-03-08T06:56:38.727Z,98558.00
2023-03-08T06:59:42.774Z,98576.91
2023-03-08T07:02:45.532Z,98569.75
2023-03-08T07:05:48.265Z,98570.28
2023-03-08T07:08:50.986Z,98576.50
2023-03-08T07:11:53.660Z,98576.16
2023-03-08T07:14:57.734Z,98573.56
2023-03-08T07:18:00.371Z,98563.69
2023-03-08T07:21:04.206Z,98568.75
2023-03-08T07:24:07.285Z,98551.06
2023-03-08T07:27:10.031Z,98544.75
2023-03-08T07:30:16.555Z,98541.91
2023-03-08T07:33:20.844Z,98531.88
2023-03-08T07:36:23.632Z,98536.22
2023-03-08T07:39:26.517Z,98537.16
2023-03-08T07:42:29.168Z,98537.31
2023-03-08T07:45:33.232Z,98532.19
2023-03-08T07:48:35.969Z,98532.25
2023-03-08T07:51:39.013Z,98516.31
2023-03-08T07:54:42.033Z,98514.50
2023-03-08T07:57:44.685Z,98502.88
2023-03-08T08:00:48.757Z,98476.34
2023-03-08T08:03:51.835Z,98476.03
2023-03-08T08:06:54.492Z,98473.06
2023-03-08T08:09:57.687Z,98466.28
2023-03-08T08:13:00.385Z,98465.06
2023-03-08T08:16:07.128Z,98456.06
2023-03-08T08:19:12.384Z,98451.72
2023-03-08T08:22:15.465Z,98444.22
2023-03-08T08:25:18.546Z,98440.91
2023-03-08T08:28:21.344Z,98382.31
2023-03-08T08:31:30.995Z,98417.91
2023-03-08T08:34:33.752Z,98421.59
2023-03-08T08:37:36.547Z,98413.22
2023-03-08T08:40:39.405Z,98394.69
2023-03-08T08:43:43.198Z,98397.66
2023-03-08T08:46:47.203Z,98390.72
2023-03-08T08:49:50.085Z,98363.97
2023-03-08T08:52:52.787Z,98360.28
2023-03-08T08:55:55.546Z,98355.06
2023-03-08T08:58:58.985Z,98338.28
2023-03-08T09:02:03.161Z,98329.47
2023-03-08T09:05:06.496Z,98321.84
2023-03-08T09:08:09.590Z,98331.25
2023-03-08T09:11:12.767Z,98321.94
2023-03-08T09:14:16.125Z,98312.78
2023-03-08T09:17:20.223Z,98307.97
2023-03-08T09:20:23.768Z,98304.19
2023-03-08T09:23:26.459Z,98302.06
2023-03-08T09:26:30.519Z,98299.53
2023-03-08T09:29:33.790Z,98291.34
2023-03-08T09:32:37.897Z,98288.66
2023-03-08T09:35:40.585Z,98292.91
2023-03-08T09:38:43.741Z,98277.06
2023-03-08T09:41:50.880Z,98283.44
2023-03-08T09:45:08.306Z,98271.94
2023-03-08T09:48:16.048Z,98272.88
2023-03-08T09:51:20.134Z,98224.97
2023-03-08T09:54:25.645Z,98279.09
2023-03-08T09:57:34.221Z,98273.19
2023-03-08T10:00:38.649Z,98278.94
2023-03-08T10:04:02.215Z,98275.25
2023-03-08T10:07:17.393Z,98263.41
2023-03-08T10:10:30.176Z,98259.38
2023-03-08T10:13:34.505Z,98251.28
2023-03-08T10:16:41.375Z,98255.09
2023-03-08T10:19:51.864Z,98253.09
2023-03-08T10:22:58.542Z,98249.78
2023-03-08T10:26:03.154Z,98233.44
2023-03-08T10:29:05.837Z,98239.31
2023-03-08T10:32:14.745Z,98229.38
2023-03-08T10:35:19.834Z,98227.53
2023-03-08T10:38:23.399Z,98216.53
2023-03-08T10:41:26.857Z,98217.75
2023-03-08T10:44:36.993Z,98226.34
2023-03-08T10:47:39.897Z,98214.22
2023-03-08T10:50:43.945Z,98212.84
2023-03-08T10:53:54.579Z,98197.03
2023-03-08T10:56:59.565Z,98201.31
2023-03-08T11:00:12.246Z,98198.09
2023-03-08T11:03:17.586Z,98193.09
2023-03-08T11:06:28.762Z,98188.44
2023-03-08T11:09:38.127Z,98189.69
2023-03-08T11:12:41.404Z,98182.94
2023-03-08T11:16:05.487Z,98171.28
2023-03-08T11:19:17.431Z,98171.00
2023-03-08T11:22:39.080Z,98161.28
2023-03-08T11:25:48.560Z,98166.81
2023-03-08T11:29:07.097Z,98153.44
2023-03-08T11:32:29.491Z,98151.25
2023-03-08T11:35:52.089Z,98150.09
2023-03-08T11:39:03.981Z,98135.19
2023-03-08T11:42:23.247Z,98123.66
2023-03-08T11:45:41.983Z,98134.53
2023-03-08T11:49:14.550Z,98136.28
2023-03-08T11:52:31.292Z,98102.59
2023-03-08T11:56:06.477Z,98114.88
2023-03-08T11:59:17.742Z,98119.28
2023-03-08T12:02:23.228Z,98109.66
2023-03-08T12:05:31.497Z,98096.91
2023-03-08T12:08:39.427Z,98090.78
2023-03-08T12:11:47.283Z,98099.69
2023-03-08T12:14:56.428Z,98084.09
2023-03-08T12:18:19.599Z,98084.06
2023-03-08T12:21:37.119Z,98080.28
2023-03-08T12:24:49.622Z,98077.75
2023-03-08T12:28:02.153Z,98064.31
2023-03-08T12:31:27.894Z,98067.53
2023-03-08T12:34:40.981Z,98064.63
2023-03-08T12:37:43.725Z,98058.19
2023-03-08T12:40:48.615Z,98048.13
2023-03-08T12:44:02.882Z,98048.91
2023-03-08T12:47:20.489Z,98042.47
2023-03-08T12:50:25.962Z,98045.75
2023-03-08T12:53:57.999Z,98025.97
2023-03-08T12:57:04.046Z,98028.41
2023-03-08T13:00:31.029Z,98032.94
2023-03-08T13:03:41.144Z,98022.41
2023-03-08T13:07:21.229Z,98013.78
2023-03-08T13:10:29.953Z,98018.63
2023-03-08T13:13:52.279Z,98018.81
2023-03-08T13:16:59.063Z,98007.91
2023-03-08T13:20:12.453Z,98013.63
2023-03-08T13:23:37.617Z,97995.72
2023-03-08T13:27:21.681Z,97988.00
2023-03-08T13:30:26.744Z,98000.03
2023-03-08T13:33:34.481Z,97995.31
2023-03-08T13:36:38.937Z,98012.22
2023-03-08T13:39:41.748Z,98004.47
2023-03-08T13:42:54.347Z,97983.69
2023-03-08T13:46:02.077Z,97999.38
2023-03-08T13:49:14.841Z,97989.19
2023-03-08T13:52:20.273Z,97997.38
2023-03-08T13:55:30.961Z,97989.94
2023-03-08T13:58:36.398Z,97976.38
2023-03-08T14:01:48.356Z,97967.00
2023-03-08T14:04:55.618Z,97980.72
2023-03-08T14:08:04.101Z,97958.72
2023-03-08T14:11:18.795Z,97958.50
2023-03-08T14:14:27.648Z,97950.13
2023-03-08T14:17:33.552Z,97956.56
2023-03-08T14:20:38.049Z,97951.25
2023-03-08T14:23:44.116Z,97953.84
2023-03-08T14:27:00.294Z,97946.66
2023-03-08T14:30:11.426Z,97951.97
2023-03-08T14:33:28.320Z,97957.59
2023-03-08T14:36:49.447Z,97947.66
2023-03-08T14:39:58.333Z,97945.28
2023-03-08T14:43:04.652Z,97941.03
2023-03-08T14:46:16.851Z,97941.84
2023-03-08T14:49:22.508Z,97923.94
2023-03-08T14:52:28.803Z,97915.94
2023-03-08T14:55:33.152Z,97907.94
2023-03-08T14:58:39.208Z,97895.34
2023-03-08T15:01:49.185Z,97906.56
2023-03-08T15:04:51.886Z,97906.97
2023-03-08T15:07:56.977Z,97908.69
2023-03-08T15:10:59.684Z,97910.41
2023-03-08T15:14:02.793Z,97907.72
2023-03-08T15:17:05.535Z,97912.38
2023-03-08T15:20:10.548Z,97919.69
2023-03-08T15:23:18.453Z,97911.63
2023-03-08T15:26:25.248Z,97900.81
2023-03-08T15:29:30.120Z,97869.78
2023-03-08T15:32:33.728Z,97881.47
2023-03-08T15:35:36.602Z,97863.56
2023-03-08T15:38:40.690Z,97856.00
2023-03-08T15:41:43.557Z,97842.41
2023-03-08T15:44:46.438Z,97856.50
2023-03-08T15:47:57.367Z,97869.00
2023-03-08T15:51:00.472Z,97864.25
2023-03-08T15:54:06.534Z,97868.53
2023-03-08T15:57:10.686Z,97874.69
2023-03-08T16:00:17.330Z,97879.88
2023-03-08T16:03:25.830Z,97871.53
2023-03-08T16:06:34.217Z,97880.25
2023-03-08T16:09:38.224Z,97889.09
2023-03-08T16:12:41.639Z,97868.00
2023-03-08T16:15:47.045Z,97865.09
2023-03-08T16:19:03.688Z,97856.84
2023-03-08T16:22:06.691Z,97852.94
2023-03-08T16:25:11.571Z,97850.03
2023-03-08T16:28:14.194Z,97857.75
2023-03-08T16:31:21.414Z,97843.38
2023-03-08T16:34:24.104Z,97861.31
2023-03-08T16:37:27.747Z,97860.22
2023-03-08T16:40:46.655Z,97838.75
2023-03-08T16:43:49.601Z,97853.81
2023-03-08T16:46:52.900Z,97857.53
2023-03-08T16:49:55.532Z,97860.34
2023-03-08T16:52:59.528Z,97855.69
2023-03-08T16:56:04.586Z,97864.50
2023-03-08T16:59:08.074Z,97866.22
2023-03-08T17:02:14.828Z,97875.19
2023-03-08T17:05:17.610Z,97873.13
2023-03-08T17:08:20.278Z,97863.78
2023-03-08T17:11:28.395Z,97861.09
2023-03-08T17:14:34.797Z,97843.16
2023-03-08T17:17:39.426Z,97845.41
2023-03-08T17:20:45.173Z,97846.97
2023-03-08T17:23:50.982Z,97852.50
2023-03-08T17:26:55.443Z,97833.47
2023-03-08T17:30:00.945Z,97833.59
2023-03-08T17:33:12.855Z,97825.75
2023-03-08T17:36:16.973Z,97842.81
2023-03-08T17:39:23.115Z,97861.72
2023-03-08T17:42:28.066Z,97861.59
2023-03-08T17:45:33.964Z,97879.78
2023-03-08T17:48:36.679Z,97878.03
2023-03-08T17:51:43.020Z,97883.66
2023-03-08T17:54:45.908Z,97882.81
2023-03-08T17:57:50.276Z,97877.56
2023-03-08T18:00:53.014Z,97882.81
2023-03-08T18:03:59.322Z,97882.81
2023-03-08T18:07:02.101Z,97883.06
2023-03-08T18:10:06.406Z,97891.88
2023-03-08T18:13:10.737Z,97889.06
2023-03-08T18:16:13.716Z,97894.94
2023-03-08T18:19:16.793Z,97894.94
2023-03-08T18:22:19.708Z,97893.00
2023-03-08T18:25:23.149Z,97894.94
2023-03-08T18:28:27.870Z,97891.50
2023-03-08T18:31:32.371Z,97893.22
2023-03-08T18:34:36.459Z,97907.00
2023-03-08T18:37:39.306Z,97911.38
2023-03-08T18:40:43.485Z,97906.13
2023-03-08T18:43:47.708Z,97915.91
2023-03-08T18:46:51.308Z,97908.94
2023-03-08T18:49:54.231Z,97908.19
2023-03-08T18:52:59.902Z,97919.97
2023-03-08T18:56:05.485Z,97942.41
2023-03-08T18:59:09.858Z,97955.06
2023-03-08T19:02:13.600Z,97925.34
2023-03-08T19:05:17.621Z,97934.44
2023-03-08T19:08:23.045Z,97931.13
2023-03-08T19:11:27.560Z,97933.94
2023-03-08T19:14:33.005Z,97942.25
2023-03-08T19:17:36.274Z,97946.69
2023-03-08T19:20:41.064Z,97936.13
2023-03-08T19:23:44.249Z,97941.53
2023-03-08T19:26:50.380Z,97939.91
2023-03-08T19:29:55.339Z,97945.06
2023-03-08T19:32:58.558Z,97951.69
2023-03-08T19:36:02.523Z,97921.66
2023-03-08T19:39:07.817Z,97944.56
2023-03-08T19:42:14.442Z,97945.66
2023-03-08T19:45:19.226Z,97960.16
2023-03-08T19:48:21.952Z,97952.06
2023-03-08T19:51:24.612Z,97955.81
2023-03-08T19:54:28.977Z,97956.69
2023-03-08T19:57:33.946Z,97963.81
2023-03-08T20:00:37.909Z,97958.41
2023-03-08T20:03:40.706Z,97965.75
2023-03-08T20:06:50.863Z,97948.34
2023-03-08T20:09:54.557Z,97950.25
2023-03-08T20:12:57.574Z,97944.22
2023-03-08T20:16:02.174Z,97943.59
2023-03-08T20:19:04.882Z,97942.84
2023-03-08T20:22:07.624Z,97946.75
2023-03-08T20:25:12.448Z,97944.28
2023-03-08T20:28:15.083Z,97938.13
2023-03-08T20:31:23.635Z,97941.06
2023-03-08T20:34:28.225Z,97929.41
2023-03-08T20:37:31.812Z,97928.31
2023-03-08T20:40:34.549Z,97918.38
2023-03-08T20:43:39.220Z,97913.84
2023-03-08T20:46:50.394Z,97925.28
2023-03-08T20:49:53.421Z,97920.56
2023-03-08T20:52:56.135Z,97918.22
2023-03-08T20:55:59.172Z,97921.91
2023-03-08T20:59:02.446Z,97917.38
2023-03-08T21:02:06.505Z,97932.44
2023-03-08T21:05:10.054Z,97928.75
2023-03-08T21:08:12.816Z,97920.56
2023-03-08T21:11:15.686Z,97919.50
2023-03-08T21:14:18.356Z,97917.41
2023-03-08T21:17:25.958Z,97913.72
2023-03-08T21:20:28.893Z,97905.53
2023-03-08T21:23:39.685Z,97908.00
2023-03-08T21:26:42.884Z,97914.03
2023-03-08T21:29:45.777Z,97910.25
2023-03-08T21:32:50.387Z,97914.41
2023-03-08T21:35:53.120Z,97911.50
2023-03-08T21:38:58.139Z,97898.97
2023-03-08T21:42:00.891Z,97888.94
2023-03-08T21:45:03.762Z,97879.88
2023-03-08T21:48:11.341Z,97881.72
2023-03-08T21:51:16.911Z,97885.25
2023-03-08T21:54:20.091Z,97887.00
2023-03-08T21:57:22.812Z,97890.41
2023-03-08T22:00:25.911Z,97880.88
2023-03-08T22:03:31.290Z,97888.47
2023-03-08T22:06:34.923Z,97891.16
2023-03-08T22:09:39.981Z,97883.06
2023-03-08T22:12:43.417Z,97893.63
2023-03-08T22:15:51.363Z,97886.25
2023-03-08T22:18:57.485Z,97886.91
2023-03-08T22:22:05.429Z,97884.31
2023-03-08T22:25:09.031Z,97885.28
2023-03-08T22:28:12.027Z,97876.22
2023-03-08T22:31:19.561Z,97860.28
2023-03-08T22:34:26.685Z,97859.91
2023-03-08T22:37:29.343Z,97859.69
2023-03-08T22:40:32.314Z,97848.72
2023-03-08T22:43:38.984Z,97853.59
2023-03-08T22:46:41.678Z,97846.38
2023-03-08T22:49:52.100Z,97857.16
2023-03-08T22:52:54.833Z,97845.16
2023-03-08T22:55:58.516Z,97855.44
2023-03-08T22:59:02.052Z,97839.25
2023-03-08T23:02:06.179Z,97837.66
2023-03-08T23:05:13.113Z,97816.81
2023-03-08T23:08:23.231Z,97813.38
2023-03-08T23:11:27.256Z,97798.19
2023-03-08T23:14:30.067Z,97773.88
2023-03-08T23:17:36.540Z,97753.28
2023-03-08T23:20:42.673Z,97746.66
2023-03-08T23:23:45.611Z,97750.94
2023-03-08T23:26:48.966Z,97760.34
2023-03-08T23:29:54.773Z,97769.41
2023-03-08T23:32:59.157Z,97766.34
2023-03-08T23:36:07.393Z,97777.59
2023-03-08T23:39:11.486Z,97761.56
2023-03-08T23:42:30.777Z,97762.06
2023-03-08T23:45:33.610Z,97748.56
2023-03-08T23:48:43.125Z,97747.19
2023-03-08T23:51:49.741Z,97745.59
2023-03-08T23:54:52.696Z,97730.25
2023-03-08T23:57:56.484Z,97719.94
